Terminal Aerodrome Forecast
Issued by NWS Anchorage, AK

Home | Current Version | Previous Version | Text Only | Print | Product List | Glossary On
Versions: 1 2 3 4 5 6 7 8 9 10 11 12 13 14 15 16 17 18 19 20 21 22 23 24 25 26 27 28 29 30 31 32 33 34 35 36 37 38 39 40 41 42 43 44 45
000
FTAK31 PANC 022341
TAFANC
TAF
PANC 022341Z 0300/0406 VRB04KT P6SM BKN250
     FM030600 17005KT P6SM SCT060 OVC100
     FM031200 03006KT P6SM VCSH SCT050 OVC080
     FM031800 14005KT P6SM -RA SCT025 OVC050
     FM032200 14005KT 5SM -RA BR SCT025 BKN035=

USA.gov is the U.S. government's official web portal to all federal, state and local government web resources and services.